Time;durP1;ratioP1;P1;durP2;ratioP2;P2;SDS_P1;SDS_P2;PMS_P1;PMS_P2;Temp;Humidity;BMP_temperature;BMP_pressure;BME280_temperature;BME280_humidity;BME280_pressure;Samples;Min_cycle;Max_cycle;Signal;HPM_P1;HPM_P2
2022/10/01 00:00:01;;;;;;;15.82;8.32;;;;;;;6.42;100.00;95683.31;1043258;28;20024;-64
2022/10/01 00:00:31;;;;;;;15.25;8.38;;;;;;;6.41;100.00;95681.75;1045690;28;20044;-66
2022/10/01 00:01:03;;;;;;;20.50;8.50;;;;;;;6.38;100.00;95681.19;1047528;28;20078;-67
2022/10/01 00:01:34;;;;;;;14.77;8.23;;;;;;;6.37;100.00;95681.41;1043061;28;20020;-67
2022/10/01 00:02:05;;;;;;;17.88;8.27;;;;;;;6.35;100.00;95683.47;1041723;28;20264;-64
2022/10/01 00:02:36;;;;;;;17.15;9.20;;;;;;;6.33;100.00;95681.09;1039085;28;20144;-64
2022/10/01 00:03:08;;;;;;;19.00;9.00;;;;;;;6.25;100.00;95668.47;1039823;28;20745;-67
2022/10/01 00:03:38;;;;;;;27.83;9.07;;;;;;;6.27;100.00;95670.81;1038248;28;20755;-67
2022/10/01 00:04:09;;;;;;;22.75;9.50;;;;;;;6.29;100.00;95680.00;1039578;28;20260;-66
2022/10/01 00:04:42;;;;;;;18.95;8.05;;;;;;;6.28;100.00;95682.84;1043186;28;20740;-67
2022/10/01 00:05:13;;;;;;;20.30;8.20;;;;;;;6.26;100.00;95674.47;1042225;28;20060;-66
2022/10/01 00:05:43;;;;;;;20.98;9.20;;;;;;;6.24;100.00;95682.53;1046644;28;20632;-67
2022/10/01 00:06:16;;;;;;;19.25;9.70;;;;;;;6.22;100.00;95679.38;1043294;28;20025;-66
2022/10/01 00:06:47;;;;;;;17.65;8.52;;;;;;;6.20;100.00;95680.63;1034045;28;20018;-66
2022/10/01 00:07:17;;;;;;;17.05;8.35;;;;;;;6.19;100.00;95677.22;1034910;28;20843;-66
2022/10/01 00:07:47;;;;;;;22.58;9.18;;;;;;;6.20;100.00;95676.19;1039712;28;20596;-66
2022/10/01 00:08:18;;;;;;;21.33;8.48;;;;;;;6.19;100.00;95674.63;1043565;28;20048;-67
2022/10/01 00:08:49;;;;;;;19.88;8.68;;;;;;;6.12;100.00;95668.78;1047115;28;20482;-66
2022/10/01 00:09:19;;;;;;;14.93;8.68;;;;;;;6.16;100.00;95680.28;1035044;28;20089;-66
2022/10/01 00:09:50;;;;;;;18.50;8.50;;;;;;;6.17;100.00;95676.69;1030974;28;20272;-65
2022/10/01 00:10:21;;;;;;;16.95;8.65;;;;;;;6.14;100.00;95670.13;1032031;28;20034;-66
2022/10/01 00:10:51;;;;;;;23.08;9.35;;;;;;;6.14;100.00;95677.16;1039126;28;20048;-64
2022/10/01 00:11:23;;;;;;;28.40;9.85;;;;;;;6.13;100.00;95672.94;1051479;28;20585;-67
2022/10/01 00:11:54;;;;;;;17.02;8.10;;;;;;;6.12;100.00;95676.59;1047456;28;20113;-66
2022/10/01 00:12:24;;;;;;;15.18;8.15;;;;;;;6.12;100.00;95674.78;1047180;28;20316;-66
2022/10/01 00:12:55;;;;;;;16.50;8.50;;;;;;;6.12;100.00;95673.97;1047222;28;20505;-65
2022/10/01 00:13:26;;;;;;;16.08;8.70;;;;;;;6.13;100.00;95676.34;1047524;28;20503;-66
2022/10/01 00:13:56;;;;;;;16.95;8.63;;;;;;;6.12;100.00;95679.19;1048888;28;20039;-67
2022/10/01 00:14:27;;;;;;;18.38;9.32;;;;;;;6.11;100.00;95677.63;1047546;28;20552;-66
2022/10/01 00:14:57;;;;;;;23.33;9.38;;;;;;;6.14;100.00;95679.75;1046738;28;20024;-66
2022/10/01 00:15:28;;;;;;;18.40;8.95;;;;;;;6.12;100.00;95679.97;1042559;28;20793;-66
2022/10/01 00:15:59;;;;;;;22.10;10.20;;;;;;;6.18;100.00;95683.47;1048215;28;20418;-66
2022/10/01 00:16:29;;;;;;;19.42;8.98;;;;;;;6.19;100.00;95679.84;1051576;28;20027;-66
2022/10/01 00:17:00;;;;;;;21.60;10.25;;;;;;;6.19;100.00;95685.03;1051358;28;20336;-66
2022/10/01 00:17:30;;;;;;;16.52;9.07;;;;;;;6.18;100.00;95686.06;1051635;28;20077;-66
2022/10/01 00:18:01;;;;;;;20.67;10.02;;;;;;;6.19;100.00;95684.25;1039165;28;20021;-66
2022/10/01 00:18:33;;;;;;;18.77;10.18;;;;;;;6.19;100.00;95682.44;1039061;28;20499;-67
2022/10/01 00:19:03;;;;;;;17.85;9.57;;;;;;;6.20;100.00;95681.41;1035137;28;20026;-66
2022/10/01 00:19:34;;;;;;;20.08;9.45;;;;;;;6.22;100.00;95684.56;1041575;28;20271;-66
2022/10/01 00:20:05;;;;;;;21.65;9.80;;;;;;;6.21;100.00;95680.41;1043340;28;20020;-66
2022/10/01 00:20:40;;;;;;;16.67;8.80;;;;;;;6.22;100.00;95683.78;1035556;28;20026;-66
2022/10/01 00:21:13;;;;;;;17.58;8.40;;;;;;;6.21;100.00;95682.22;1038860;28;20933;-65
2022/10/01 00:21:43;;;;;;;18.17;9.40;;;;;;;6.21;100.00;95683.00;1034928;28;20665;-66
2022/10/01 00:22:14;;;;;;;18.63;9.20;;;;;;;6.22;100.00;95684.56;1036930;28;20264;-66
2022/10/01 00:22:46;;;;;;;18.55;9.30;;;;;;;6.16;100.00;95675.09;1043136;28;20017;-66
2022/10/01 00:23:18;;;;;;;19.70;9.35;;;;;;;6.21;100.00;95685.59;1035230;28;20037;-66
2022/10/01 00:23:55;;;;;;;19.42;9.40;;;;;;;6.17;100.00;95675.88;1035474;28;20354;-66
2022/10/01 00:24:26;;;;;;;19.52;9.23;;;;;;;6.21;100.00;95688.22;1035490;28;20660;-66
2022/10/01 00:24:58;;;;;;;21.15;8.40;;;;;;;6.21;100.00;95685.59;1040560;28;20260;-67
2022/10/01 00:25:29;;;;;;;15.07;8.75;;;;;;;6.22;100.00;95686.38;1039665;28;20017;-66
2022/10/01 00:26:10;;;;;;;20.38;9.32;;;;;;;6.20;100.00;95685.81;1042876;28;20259;-66
2022/10/01 00:26:41;;;;;;;17.55;8.73;;;;;;;6.18;100.00;95686.06;1039135;28;20516;-66
2022/10/01 00:27:12;;;;;;;17.80;8.90;;;;;;;6.17;100.00;95684.50;1042226;28;20755;-66
2022/10/01 00:27:45;;;;;;;20.90;8.70;;;;;;;6.19;100.00;95679.84;1043000;28;20078;-66
2022/10/01 00:28:16;;;;;;;16.60;9.50;;;;;;;6.16;100.00;95675.09;1043227;28;20282;-66
2022/10/01 00:28:47;;;;;;;24.08;9.88;;;;;;;6.15;100.00;95673.50;1039039;28;20271;-66
2022/10/01 00:29:17;;;;;;;18.30;8.85;;;;;;;6.20;100.00;95676.19;1039578;28;20029;-66
2022/10/01 00:29:48;;;;;;;18.90;9.63;;;;;;;6.18;100.00;95680.88;1041814;28;20330;-66
2022/10/01 00:30:19;;;;;;;17.30;8.52;;;;;;;6.18;100.00;95672.25;1042960;28;20029;-66
2022/10/01 00:30:49;;;;;;;16.50;9.35;;;;;;;6.16;100.00;95675.09;1043196;28;20049;-66
2022/10/01 00:31:20;;;;;;;17.35;8.73;;;;;;;6.16;100.00;95676.91;1047172;28;20427;-65
2022/10/01 00:31:50;;;;;;;22.23;9.80;;;;;;;6.18;100.00;95673.06;1047111;28;20033;-65
2022/10/01 00:32:20;;;;;;;20.52;9.27;;;;;;;6.16;100.00;95664.66;1043418;28;20025;-66
2022/10/01 00:32:54;;;;;;;20.77;8.98;;;;;;;6.17;100.00;95670.66;1047090;28;20027;-65
2022/10/01 00:33:25;;;;;;;22.52;9.82;;;;;;;6.17;100.00;95676.69;1043383;28;20043;-66
2022/10/01 00:33:57;;;;;;;23.38;9.63;;;;;;;6.16;100.00;95669.88;1039333;28;20276;-66
2022/10/01 00:34:27;;;;;;;20.33;9.32;;;;;;;6.16;100.00;95675.09;1039072;28;20029;-65
2022/10/01 00:35:02;;;;;;;22.42;10.02;;;;;;;6.09;100.00;95658.81;1039297;28;20678;-66
2022/10/01 00:35:32;;;;;;;20.02;9.65;;;;;;;6.17;100.00;95676.69;1039161;28;20025;-65
2022/10/01 00:36:04;;;;;;;20.92;10.65;;;;;;;6.11;100.00;95667.22;1043589;28;20279;-66
2022/10/01 00:36:34;;;;;;;23.10;10.23;;;;;;;6.19;100.00;95677.22;1039048;28;20075;-66
2022/10/01 00:37:05;;;;;;;24.90;9.85;;;;;;;6.21;100.00;95672.59;1034880;28;20378;-66
2022/10/01 00:37:36;;;;;;;26.48;9.95;;;;;;;6.20;100.00;95673.59;1035122;28;20022;-67
2022/10/01 00:38:07;;;;;;;22.77;9.32;;;;;;;6.19;100.00;95674.63;1039375;28;20033;-67
2022/10/01 00:38:39;;;;;;;24.73;9.63;;;;;;;6.16;100.00;95664.66;1043056;28;20743;-67
2022/10/01 00:39:10;;;;;;;19.42;9.80;;;;;;;6.21;100.00;95666.59;1035526;28;20026;-66
2022/10/01 00:39:40;;;;;;;20.35;9.75;;;;;;;6.20;100.00;95664.97;1038938;28;20259;-65
2022/10/01 00:40:10;;;;;;;24.48;10.70;;;;;;;6.20;100.00;95665.78;1039243;28;20026;-65
2022/10/01 00:40:41;;;;;;;20.60;9.93;;;;;;;6.21;100.00;95663.97;1043818;28;20046;-66
2022/10/01 00:41:11;;;;;;;21.35;9.73;;;;;;;6.21;100.00;95661.38;1047593;28;20029;-66
2022/10/01 00:41:42;;;;;;;18.30;9.95;;;;;;;6.18;100.00;95657.41;1047586;28;20377;-66
2022/10/01 00:42:24;;;;;;;20.20;9.85;;;;;;;6.16;100.00;95662.06;1047145;28;20029;-66
2022/10/01 00:42:54;;;;;;;19.63;9.55;;;;;;;6.15;100.00;95657.88;1047270;28;20028;-66
2022/10/01 00:43:26;;;;;;;17.65;9.20;;;;;;;6.16;100.00;95659.47;1041951;28;20271;-67
2022/10/01 00:43:59;;;;;;;24.42;11.05;;;;;;;6.18;100.00;95660.03;1036647;28;20026;-66
2022/10/01 00:44:34;;;;;;;21.02;10.32;;;;;;;6.16;100.00;95656.84;1039032;28;21173;-66
2022/10/01 00:45:05;;;;;;;22.33;10.32;;;;;;;6.14;100.00;95666.75;1035877;28;20284;-66
2022/10/01 00:45:36;;;;;;;23.75;10.30;;;;;;;6.11;100.00;95651.56;1039349;28;20260;-65
2022/10/01 00:46:44;;;;;;;21.58;9.45;;;;;;;6.13;100.00;95654.72;1038921;28;20021;-66
2022/10/01 00:47:27;;;;;;;21.55;9.07;;;;;;;6.11;100.00;95662.00;1044059;28;20293;-67
2022/10/01 00:47:57;;;;;;;18.02;8.88;;;;;;;6.11;100.00;95656.78;1041631;28;20366;-66
2022/10/01 00:48:28;;;;;;;21.70;9.90;;;;;;;6.12;100.00;95661.75;1038944;28;20776;-66
2022/10/01 00:49:01;;;;;;;16.73;8.30;;;;;;;6.07;100.00;95660.88;1034806;28;20030;-67
2022/10/01 00:49:32;;;;;;;23.92;9.50;;;;;;;6.09;100.00;95657.00;1031338;28;20026;-66
2022/10/01 00:50:10;;;;;;;18.40;9.65;;;;;;;6.09;100.00;95658.81;1036013;28;20273;-65
2022/10/01 00:50:41;;;;;;;18.88;10.02;;;;;;;6.07;100.00;95653.06;1038864;28;20275;-66
2022/10/01 00:51:12;;;;;;;18.27;8.80;;;;;;;6.07;100.00;95653.06;1036361;28;20283;-65
2022/10/01 00:51:45;;;;;;;20.90;9.68;;;;;;;5.99;100.00;95648.25;1031917;28;20116;-66
2022/10/01 00:52:19;;;;;;;19.77;9.70;;;;;;;6.02;100.00;95658.97;1027218;28;20294;-66
2022/10/01 00:52:55;;;;;;;17.48;9.55;;;;;;;6.01;100.00;95657.41;1034786;28;20260;-66
2022/10/01 00:53:26;;;;;;;19.42;10.65;;;;;;;5.85;100.00;95632.09;1038827;28;20330;-66
2022/10/01 00:54:04;;;;;;;24.05;9.40;;;;;;;5.97;100.00;95650.28;1030855;28;20769;-66
2022/10/01 00:54:45;;;;;;;18.98;9.50;;;;;;;5.96;100.00;95657.31;1030656;28;20026;-66
2022/10/01 00:55:19;;;;;;;18.75;9.05;;;;;;;5.98;100.00;95654.47;1030661;28;20776;-67
2022/10/01 00:55:54;;;;;;;21.58;9.43;;;;;;;5.99;100.00;95663.88;1034431;28;20360;-65
2022/10/01 00:56:24;;;;;;;20.20;9.05;;;;;;;5.99;100.00;95658.66;1034841;28;20276;-66
2022/10/01 00:56:54;;;;;;;18.80;9.13;;;;;;;5.91;100.00;95647.56;1037768;28;20273;-67
2022/10/01 00:57:25;;;;;;;19.83;9.13;;;;;;;5.96;100.00;95661.72;1027451;28;20037;-66
2022/10/01 00:57:55;;;;;;;17.98;8.95;;;;;;;5.99;100.00;95653.44;1030990;28;20030;-66
2022/10/01 00:58:26;;;;;;;19.67;10.30;;;;;;;5.99;100.00;95658.66;1031401;28;20030;-66
2022/10/01 00:58:57;;;;;;;21.50;9.90;;;;;;;5.99;100.00;95653.44;1034931;28;20026;-66
2022/10/01 00:59:27;;;;;;;21.63;10.30;;;;;;;5.81;100.00;95620.59;1039053;28;20029;-66
2022/10/01 00:59:58;;;;;;;19.73;9.52;;;;;;;6.02;100.00;95652.97;1030698;28;20069;-68
2022/10/01 01:00:29;;;;;;;22.63;9.73;;;;;;;6.01;100.00;95657.41;1033030;28;20113;-66
2022/10/01 01:01:00;;;;;;;19.77;10.23;;;;;;;6.01;100.00;95657.41;1034878;28;20304;-66
2022/10/01 01:01:30;;;;;;;23.20;10.05;;;;;;;6.00;100.00;95653.22;1034652;28;20034;-64
2022/10/01 01:02:01;;;;;;;21.67;10.02;;;;;;;6.02;100.00;95658.97;1034888;28;20026;-67
2022/10/01 01:02:31;;;;;;;20.98;10.07;;;;;;;6.03;100.00;95662.38;1034997;28;20100;-66
2022/10/01 01:03:01;;;;;;;25.52;10.88;;;;;;;6.03;100.00;95655.34;1034686;28;20030;-67
2022/10/01 01:03:32;;;;;;;24.02;11.15;;;;;;;6.08;100.00;95662.47;1031360;28;20026;-66
2022/10/01 01:04:02;;;;;;;26.40;11.43;;;;;;;6.10;100.00;95661.22;1039062;28;20033;-66
2022/10/01 01:04:33;;;;;;;22.65;10.57;;;;;;;6.09;100.00;95653.63;1038903;28;20037;-66
2022/10/01 01:05:04;;;;;;;21.67;10.93;;;;;;;6.12;100.00;95658.34;1042431;28;20032;-66
2022/10/01 01:05:34;;;;;;;23.95;10.85;;;;;;;6.15;100.00;95668.31;1045333;28;20042;-64
2022/10/01 01:06:06;;;;;;;18.98;10.25;;;;;;;6.15;100.00;95660.50;1043044;28;20146;-66
2022/10/01 01:06:37;;;;;;;25.17;10.10;;;;;;;6.13;100.00;95665.91;1047076;28;20165;-65
2022/10/01 01:07:07;;;;;;;18.17;9.88;;;;;;;6.12;100.00;95660.97;1045828;28;20266;-66
2022/10/01 01:07:39;;;;;;;24.10;9.98;;;;;;;6.05;100.00;95657.72;1039294;28;20107;-66
2022/10/01 01:08:09;;;;;;;24.75;11.30;;;;;;;6.13;100.00;95662.53;1034756;28;20045;-66
2022/10/01 01:08:41;;;;;;;23.42;11.35;;;;;;;6.13;100.00;95665.13;1034685;28;20296;-66
2022/10/01 01:09:11;;;;;;;19.45;10.15;;;;;;;6.12;100.00;95653.16;1031459;28;20378;-66
2022/10/01 01:09:46;;;;;;;20.38;10.45;;;;;;;6.14;100.00;95662.31;1035198;28;20253;-66
2022/10/01 01:10:18;;;;;;;21.77;10.52;;;;;;;6.12;100.00;95655.75;1031338;28;20125;-66
2022/10/01 01:11:47;;;;;;;22.65;10.00;;;;;;;6.14;100.00;95664.13;1031546;28;20648;-66
2022/10/01 01:12:39;;;;;;;23.80;8.85;;;;;;;6.11;100.00;95656.78;1034172;28;20331;-67
2022/10/01 01:13:14;;;;;;;22.60;8.60;;;;;;;6.08;100.00;95658.03;1034573;28;20284;-66
2022/10/01 01:14:07;;;;;;;18.33;9.30;;;;;;;6.07;100.00;95660.88;1035007;28;20285;-66
2022/10/01 01:14:59;;;;;;;18.50;9.02;;;;;;;6.03;100.00;95660.53;1034729;28;20269;-67
2022/10/01 01:15:41;;;;;;;19.33;9.15;;;;;;;6.02;100.00;95658.19;1033444;28;20798;-63
2022/10/01 01:16:19;;;;;;;20.27;9.18;;;;;;;6.07;100.00;95655.66;1026352;28;20285;-63
2022/10/01 01:16:58;;;;;;;22.58;9.45;;;;;;;6.05;100.00;95657.72;1022394;29;20278;-65
2022/10/01 01:17:46;;;;;;;20.58;9.13;;;;;;;6.00;100.00;95655.03;1022324;29;20282;-65
2022/10/01 01:18:16;;;;;;;18.67;9.02;;;;;;;6.02;100.00;95651.16;1035065;28;20384;-65
2022/10/01 01:18:59;;;;;;;18.05;9.20;;;;;;;5.98;100.00;95655.28;1042718;28;20312;-67
2022/10/01 01:20:28;;;;;;;22.27;9.75;;;;;;;6.00;100.00;95663.66;1038483;28;20044;-63
2022/10/01 01:21:18;;;;;;;21.98;9.93;;;;;;;6.03;100.00;95659.75;1029986;28;20364;-64
2022/10/01 01:21:51;;;;;;;24.13;8.75;;;;;;;5.97;100.00;95651.09;1044141;28;20274;-65
2022/10/01 01:22:23;;;;;;;22.42;9.02;;;;;;;5.97;100.00;95658.09;1042951;28;20036;-65
2022/10/01 01:23:15;;;;;;;20.73;9.75;;;;;;;6.00;100.00;95660.22;1039920;28;20650;-65
2022/10/01 01:23:51;;;;;;;20.50;9.65;;;;;;;6.01;100.00;95656.63;1034481;28;20269;-67
2022/10/01 01:24:34;;;;;;;25.50;10.38;;;;;;;6.00;100.00;95655.84;1034722;28;20261;-65
2022/10/01 01:25:17;;;;;;;19.20;8.70;;;;;;;5.95;100.00;95652.34;1042832;28;20370;-66
2022/10/01 01:25:55;;;;;;;22.23;9.40;;;;;;;5.89;100.00;95649.63;1038193;28;20292;-67
2022/10/01 01:26:41;;;;;;;25.13;10.30;;;;;;;5.98;100.00;95662.28;1026179;28;20276;-64
2022/10/01 01:27:37;;;;;;;23.08;10.32;;;;;;;5.95;100.00;95654.94;1026366;28;20258;-63
2022/10/01 01:28:11;;;;;;;21.60;9.35;;;;;;;5.95;100.00;95658.34;1034352;28;20277;-64
2022/10/01 01:28:43;;;;;;;21.92;9.95;;;;;;;5.89;100.00;95648.81;1038718;28;20274;-67
2022/10/01 01:29:38;;;;;;;23.90;10.68;;;;;;;5.97;100.00;95661.50;1034646;28;20319;-67
2022/10/01 01:30:14;;;;;;;25.67;9.73;;;;;;;6.00;100.00;95657.63;1027361;28;20612;-64
2022/10/01 01:30:46;;;;;;;19.95;9.85;;;;;;;6.06;100.00;95659.28;1038868;28;20377;-65
2022/10/01 01:31:20;;;;;;;24.50;10.70;;;;;;;6.02;100.00;95653.78;1034659;28;20355;-67
2022/10/01 01:31:51;;;;;;;22.80;10.43;;;;;;;6.06;100.00;95659.28;1026579;28;20266;-65
2022/10/01 01:32:26;;;;;;;26.00;10.57;;;;;;;6.06;100.00;95660.06;1030632;28;20269;-66
2022/10/01 01:33:01;;;;;;;33.28;13.18;;;;;;;6.14;100.00;95661.53;1028524;28;20011;-64
2022/10/01 01:33:33;;;;;;;27.23;11.73;;;;;;;6.11;100.00;95662.78;1036227;28;20256;-64
2022/10/01 01:34:07;;;;;;;23.65;11.18;;;;;;;6.03;100.00;95649.34;1036163;28;20272;-66
2022/10/01 01:34:37;;;;;;;23.77;11.10;;;;;;;6.06;100.00;95654.09;1035225;28;20257;-66
2022/10/01 01:35:09;;;;;;;22.58;10.55;;;;;;;6.08;100.00;95654.66;1032075;28;20327;-66
2022/10/01 01:35:50;;;;;;;27.13;11.73;;;;;;;6.09;100.00;95659.59;1025841;28;20026;-67
2022/10/01 01:36:28;;;;;;;26.60;11.45;;;;;;;6.10;100.00;95661.22;1027249;28;20307;-67
2022/10/01 01:37:02;;;;;;;22.55;10.52;;;;;;;6.07;100.00;95656.47;1042962;28;20338;-67
2022/10/01 01:37:44;;;;;;;26.40;11.55;;;;;;;6.12;100.00;95660.97;1038694;28;20314;-66
2022/10/01 01:38:17;;;;;;;29.02;11.07;;;;;;;6.08;100.00;95655.44;1040841;28;20252;-66
2022/10/01 01:38:53;;;;;;;32.47;11.20;;;;;;;6.13;100.00;95662.53;1038771;28;20800;-66
2022/10/01 01:39:24;;;;;;;25.08;10.98;;;;;;;6.14;100.00;95664.13;1026846;28;20269;-66
2022/10/01 01:39:55;;;;;;;23.55;11.77;;;;;;;6.15;100.00;95663.09;1026409;28;20266;-66
2022/10/01 01:40:25;;;;;;;27.55;11.25;;;;;;;6.14;100.00;95661.53;1026628;28;20105;-66
2022/10/01 01:40:58;;;;;;;25.63;11.38;;;;;;;6.13;100.00;95654.72;1026615;28;20011;-66
2022/10/01 01:41:29;;;;;;;28.48;11.65;;;;;;;6.08;100.00;95652.03;1027507;28;20019;-65
2022/10/01 01:42:04;;;;;;;23.52;10.98;;;;;;;6.14;100.00;95658.91;1030621;28;20476;-66
2022/10/01 01:42:36;;;;;;;31.10;12.23;;;;;;;6.17;100.00;95650.63;1030346;28;20265;-66
2022/10/01 01:43:09;;;;;;;26.20;11.43;;;;;;;6.15;100.00;95652.69;1026744;28;20317;-66
2022/10/01 01:43:44;;;;;;;24.52;11.57;;;;;;;6.12;100.00;95647.94;1030537;28;20296;-65
2022/10/01 01:44:15;;;;;;;28.55;11.90;;;;;;;6.14;100.00;95657.09;1030626;28;20249;-66
2022/10/01 01:44:45;;;;;;;23.63;10.70;;;;;;;6.15;100.00;95657.88;1034635;28;20264;-65
2022/10/01 01:45:19;;;;;;;22.30;10.80;;;;;;;6.16;100.00;95656.06;1038706;28;20056;-66
2022/10/01 01:45:50;;;;;;;27.13;11.75;;;;;;;6.12;100.00;95647.94;1039125;28;20131;-66
2022/10/01 01:46:20;;;;;;;24.92;11.82;;;;;;;6.13;100.00;95652.91;1031321;28;20253;-66
2022/10/01 01:46:52;;;;;;;26.00;11.27;;;;;;;6.16;100.00;95654.25;1030784;28;20265;-65
2022/10/01 01:47:23;;;;;;;32.47;13.23;;;;;;;6.18;100.00;95657.41;1027260;28;20015;-65
2022/10/01 01:47:54;;;;;;;25.52;12.32;;;;;;;6.20;100.00;95657.94;1027088;28;20266;-66
2022/10/01 01:48:25;;;;;;;28.65;11.90;;;;;;;6.23;100.00;95648.88;1034498;28;20084;-66
2022/10/01 01:48:56;;;;;;;28.95;11.45;;;;;;;6.22;100.00;95655.13;1034532;28;20273;-66
2022/10/01 01:49:26;;;;;;;29.80;12.35;;;;;;;6.20;100.00;95649.34;1030630;28;20556;-66
2022/10/01 01:49:58;;;;;;;27.02;11.93;;;;;;;6.20;100.00;95644.94;1030640;28;20273;-66
2022/10/01 01:50:30;;;;;;;27.33;11.27;;;;;;;6.20;100.00;95644.94;1031253;28;20026;-66
2022/10/01 01:51:05;;;;;;;23.60;11.02;;;;;;;6.19;100.00;95648.56;1030997;28;20265;-66
2022/10/01 01:51:55;;;;;;;22.95;10.68;;;;;;;6.18;100.00;95641.78;1031022;28;20428;-66
2022/10/01 01:52:25;;;;;;;21.48;10.30;;;;;;;6.18;100.00;95647.00;1038321;28;20770;-66
2022/10/01 01:52:56;;;;;;;22.20;10.32;;;;;;;6.25;100.00;95654.66;1041590;28;20260;-66
2022/10/01 01:53:29;;;;;;;25.30;10.48;;;;;;;6.23;100.00;95648.88;1037033;28;20014;-67
2022/10/01 01:53:59;;;;;;;23.42;10.40;;;;;;;6.23;100.00;95649.66;1034780;28;20097;-67
2022/10/01 01:54:29;;;;;;;27.83;11.82;;;;;;;6.27;100.00;95648.19;1030821;28;20265;-65
2022/10/01 01:55:06;;;;;;;25.02;12.30;;;;;;;6.30;100.00;95654.72;1031326;28;20465;-65
2022/10/01 01:55:36;;;;;;;23.17;10.13;;;;;;;6.24;100.00;95645.28;1039724;28;20025;-66
2022/10/01 01:56:07;;;;;;;24.15;10.85;;;;;;;6.28;100.00;95647.16;1034783;28;20257;-66
2022/10/01 01:56:37;;;;;;;26.42;11.70;;;;;;;6.25;100.00;95649.44;1034575;28;20021;-66
2022/10/01 01:57:08;;;;;;;20.95;9.88;;;;;;;6.23;100.00;95647.06;1035796;28;20032;-66
2022/10/01 01:58:18;;;;;;;26.60;11.50;;;;;;;6.21;100.00;95646.53;1023861;28;20054;-67
2022/10/01 01:58:48;;;;;;;27.42;11.05;;;;;;;6.24;100.00;95651.25;1016544;29;20291;-66
2022/10/01 01:59:19;;;;;;;22.65;10.48;;;;;;;6.19;100.00;95640.75;1023764;28;20278;-67
2022/10/01 01:59:49;;;;;;;24.88;11.05;;;;;;;6.19;100.00;95643.34;1024810;28;20047;-66
2022/10/01 02:00:21;;;;;;;22.85;10.27;;;;;;;6.20;100.00;95650.13;1022547;28;20046;-68
2022/10/01 02:00:51;;;;;;;21.48;11.15;;;;;;;6.21;100.00;95648.34;1026695;28;20054;-66
2022/10/01 02:01:36;;;;;;;29.65;12.02;;;;;;;6.22;100.00;95642.88;1029282;28;20266;-66
2022/10/01 02:02:38;;;;;;;29.75;11.15;;;;;;;6.23;100.00;95641.84;1035239;28;20587;-66
2022/10/01 02:03:09;;;;;;;21.52;10.45;;;;;;;6.23;100.00;95641.06;1018317;28;20318;-67
2022/10/01 02:03:40;;;;;;;22.70;9.75;;;;;;;6.18;100.00;95636.56;1017165;29;20263;-67
2022/10/01 02:04:42;;;;;;;25.70;10.65;;;;;;;6.19;100.00;95632.94;1018530;29;20766;-66
2022/10/01 02:05:14;;;;;;;21.17;9.85;;;;;;;6.24;100.00;95651.25;1021426;28;20554;-67
2022/10/01 02:05:51;;;;;;;24.77;11.52;;;;;;;6.23;100.00;95643.66;1025784;28;20661;-66
2022/10/01 02:06:29;;;;;;;27.30;11.48;;;;;;;6.22;100.00;95648.09;1026729;28;20266;-67
2022/10/01 02:07:09;;;;;;;21.08;9.13;;;;;;;6.19;100.00;95643.34;1029502;28;20269;-66
2022/10/01 02:08:12;;;;;;;26.63;10.88;;;;;;;6.22;100.00;95648.09;1030280;28;20281;-65
2022/10/01 02:09:10;;;;;;;28.20;10.38;;;;;;;6.22;100.00;95648.09;1020033;29;20832;-66
2022/10/01 02:09:51;;;;;;;24.27;11.23;;;;;;;6.20;100.00;95644.13;1018213;28;20689;-66
2022/10/01 02:10:58;;;;;;;24.10;10.45;;;;;;;6.21;100.00;95638.72;1032237;28;20336;-67
2022/10/01 02:11:37;;;;;;;21.55;9.25;;;;;;;6.24;100.00;95646.06;1038720;28;20260;-65
2022/10/01 02:12:12;;;;;;;28.52;11.20;;;;;;;6.27;100.00;95637.78;1028705;28;20345;-64
2022/10/01 02:13:02;;;;;;;24.25;11.50;;;;;;;6.27;100.00;95640.38;1030631;28;20731;-64
2022/10/01 02:13:46;;;;;;;25.80;10.50;;;;;;;6.27;100.00;95636.94;1030493;28;20254;-64
2022/10/01 02:14:27;;;;;;;26.73;10.48;;;;;;;6.29;100.00;95637.53;1030314;28;20591;-64
2022/10/01 02:15:07;;;;;;;33.15;11.30;;;;;;;6.28;100.00;95641.94;1026622;28;20312;-64
2022/10/01 02:15:58;;;;;;;30.70;13.35;;;;;;;6.30;100.00;95639.88;1028106;28;20296;-64
2022/10/01 02:16:48;;;;;;;27.58;11.32;;;;;;;6.32;100.00;95637.81;1028788;28;20026;-66
2022/10/01 02:17:28;;;;;;;25.92;11.68;;;;;;;6.32;100.00;95635.22;1030818;28;20587;-68
2022/10/01 02:18:28;;;;;;;31.88;11.52;;;;;;;6.32;100.00;95632.63;1033725;28;20799;-66
2022/10/01 02:19:11;;;;;;;23.27;9.75;;;;;;;6.36;100.00;95641.53;1033325;28;20010;-66
2022/10/01 02:19:50;;;;;;;29.17;11.95;;;;;;;6.36;100.00;95631.09;1037649;28;20711;-64
2022/10/01 02:20:43;;;;;;;25.92;10.55;;;;;;;6.42;100.00;95631.97;1034767;28;20632;-65
2022/10/01 02:21:19;;;;;;;26.98;11.68;;;;;;;6.50;100.00;95646.41;1030504;28;20377;-64
2022/10/01 02:21:54;;;;;;;33.13;12.13;;;;;;;6.45;100.00;95636.72;1029017;28;20758;-64
2022/10/01 02:22:34;;;;;;;25.25;11.23;;;;;;;6.54;100.00;95645.72;1034598;28;20822;-66
2022/10/01 02:23:05;;;;;;;;;;;;;;;6.57;100.00;95644.44;1030595;28;20261;-64
2022/10/01 02:23:46;;;;;;;27.65;11.05;;;;;;;6.60;100.00;95638.75;1026488;28;19957;-64
2022/10/01 02:24:26;;;;;;;38.15;10.45;;;;;;;6.63;100.00;95637.47;1026482;28;20868;-66
2022/10/01 02:24:57;;;;;;;28.13;11.10;;;;;;;6.59;100.00;95626.75;1029096;28;20026;-64
2022/10/01 02:25:31;;;;;;;30.75;12.48;;;;;;;6.64;100.00;95637.25;1026046;28;20125;-64
2022/10/01 02:26:06;;;;;;;32.88;13.13;;;;;;;6.63;100.00;95635.66;1022322;29;20046;-67
2022/10/01 02:26:37;;;;;;;25.45;11.95;;;;;;;6.64;100.00;95629.44;1030545;28;20265;-68
2022/10/01 02:27:28;;;;;;;31.23;12.70;;;;;;;6.73;100.00;95637.63;1026555;28;20258;-67
2022/10/01 02:28:01;;;;;;;28.50;10.82;;;;;;;6.73;100.00;95632.41;1024101;28;20043;-66
2022/10/01 02:28:32;;;;;;;32.50;11.75;;;;;;;6.69;100.00;95626.88;1025473;28;20754;-66
2022/10/01 02:29:05;;;;;;;28.88;12.13;;;;;;;6.74;100.00;95634.78;1033733;28;20312;-66
2022/10/01 02:29:36;;;;;;;27.98;11.57;;;;;;;6.77;100.00;95639.53;1031404;28;20026;-66
2022/10/01 02:30:07;;;;;;;25.83;11.90;;;;;;;6.73;100.00;95627.97;1026527;28;20341;-68
2022/10/01 02:30:38;;;;;;;28.10;11.73;;;;;;;6.79;100.00;95641.88;1022465;29;20106;-66
2022/10/01 02:31:09;;;;;;;27.23;12.05;;;;;;;6.78;100.00;95635.88;1026724;28;20305;-66
2022/10/01 02:31:40;;;;;;;26.15;12.00;;;;;;;6.78;100.00;95635.09;1026381;28;20023;-66
2022/10/01 02:32:10;;;;;;;21.65;10.95;;;;;;;6.79;100.00;95637.44;1022737;29;20277;-66
2022/10/01 02:32:42;;;;;;;29.55;12.63;;;;;;;6.79;100.00;95632.22;1018526;29;20028;-68
2022/10/01 02:33:14;;;;;;;27.95;12.77;;;;;;;6.80;100.00;95636.41;1030490;28;20022;-68
2022/10/01 02:33:44;;;;;;;26.27;11.52;;;;;;;6.79;100.00;95632.22;1030620;28;20270;-66
2022/10/01 02:34:15;;;;;;;25.88;12.27;;;;;;;6.78;100.00;95630.66;1022933;28;20306;-67
2022/10/01 02:34:46;;;;;;;25.55;11.57;;;;;;;6.78;100.00;95629.88;1030314;28;20018;-66
2022/10/01 02:35:17;;;;;;;24.33;11.35;;;;;;;6.76;100.00;95627.50;1022955;28;20031;-65
2022/10/01 02:35:48;;;;;;;23.92;11.73;;;;;;;6.75;100.00;95625.94;1013705;29;20276;-64
2022/10/01 02:36:18;;;;;;;22.25;11.43;;;;;;;6.76;100.00;95632.72;1021821;29;20619;-64
2022/10/01 02:36:49;;;;;;;24.35;12.18;;;;;;;6.76;100.00;95624.88;1026701;28;20026;-65
2022/10/01 02:37:20;;;;;;;25.75;11.70;;;;;;;6.75;100.00;95631.16;1030798;28;20481;-66
2022/10/01 02:37:51;;;;;;;25.55;11.27;;;;;;;6.75;100.00;95625.94;1030774;28;20015;-67
2022/10/01 02:38:22;;;;;;;26.15;11.98;;;;;;;6.76;100.00;95632.72;1035352;28;20280;-67
2022/10/01 02:38:52;;;;;;;28.15;11.27;;;;;;;6.76;100.00;95622.28;1035432;28;20025;-65
2022/10/01 02:39:23;;;;;;;27.35;11.93;;;;;;;6.77;100.00;95634.31;1035874;28;20022;-66
2022/10/01 02:39:54;;;;;;;29.00;12.88;;;;;;;6.72;100.00;95626.41;1031287;28;20030;-66
2022/10/01 02:40:25;;;;;;;26.70;11.38;;;;;;;6.78;100.00;95630.66;1023707;28;20026;-66
2022/10/01 02:40:57;;;;;;;25.92;12.45;;;;;;;6.78;100.00;95630.66;1027284;28;20019;-67
2022/10/01 02:41:33;;;;;;;24.73;10.90;;;;;;;6.79;100.00;95628.84;1019612;29;21141;-66